createdAt,value
2022-11-29T00:03:35.523Z,9.88
2022-11-29T00:07:17.486Z,12.60
2022-11-29T00:11:04.933Z,10.50
2022-11-29T00:14:47.108Z,12.70
2022-11-29T00:18:29.099Z,13.32
2022-11-29T00:22:11.166Z,12.13
2022-11-29T00:25:54.354Z,10.07
2022-11-29T00:29:36.358Z,10.55
2022-11-29T00:33:18.258Z,8.13
2022-11-29T00:37:00.159Z,8.85
2022-11-29T00:40:42.101Z,7.75
2022-11-29T00:44:24.083Z,6.50
2022-11-29T00:48:06.276Z,7.88
2022-11-29T00:51:48.145Z,9.82
2022-11-29T00:55:30.015Z,13.18
2022-11-29T00:59:11.874Z,11.65
2022-11-29T01:02:53.984Z,7.10
2022-11-29T01:06:35.893Z,6.57
2022-11-29T01:10:17.907Z,8.60
2022-11-29T01:14:01.713Z,8.50
2022-11-29T01:17:43.815Z,7.97
2022-11-29T01:21:25.779Z,7.95
2022-11-29T01:25:08.969Z,8.38
2022-11-29T01:28:53.122Z,12.80
2022-11-29T01:32:36.368Z,11.13
2022-11-29T01:36:18.328Z,10.00
2022-11-29T01:40:00.201Z,10.63
2022-11-29T01:44:14.491Z,10.23
2022-11-29T01:47:57.594Z,89.38
2022-11-29T01:51:42.372Z,71.60
2022-11-29T01:55:24.343Z,163.00
2022-11-29T01:59:14.602Z,228.85
2022-11-29T02:03:02.214Z,38.00
2022-11-29T02:06:44.718Z,11.15
2022-11-29T02:10:43.747Z,11.50
2022-11-29T02:14:55.805Z,10.25
2022-11-29T02:18:53.867Z,11.77
2022-11-29T02:22:46.476Z,7.97
2022-11-29T02:26:40.459Z,10.57
2022-11-29T02:30:57.861Z,12.43
2022-11-29T02:35:06.089Z,11.15
2022-11-29T02:39:03.135Z,9.85
2022-11-29T02:43:06.136Z,11.52
2022-11-29T02:47:36.871Z,13.82
2022-11-29T02:51:34.839Z,10.40
2022-11-29T02:55:20.497Z,8.85
2022-11-29T02:59:40.154Z,9.07
2022-11-29T03:03:35.718Z,11.65
2022-11-29T03:08:00.809Z,10.27
2022-11-29T03:11:50.832Z,12.95
2022-11-29T03:15:46.561Z,10.77
2022-11-29T03:19:49.527Z,10.25
2022-11-29T03:24:00.243Z,9.95
2022-11-29T03:27:50.867Z,10.57
2022-11-29T03:31:38.956Z,7.85
2022-11-29T03:39:07.591Z,8.52
2022-11-29T03:43:06.365Z,11.77
2022-11-29T03:47:09.364Z,8.48
2022-11-29T03:50:56.484Z,9.80
2022-11-29T03:54:59.922Z,11.67
2022-11-29T03:59:14.895Z,9.05
2022-11-29T04:03:08.202Z,10.07
2022-11-29T04:07:01.918Z,11.18
2022-11-29T04:10:43.751Z,9.10
2022-11-29T04:14:34.978Z,10.45
2022-11-29T04:18:31.583Z,10.48
2022-11-29T04:23:12.059Z,11.15
2022-11-29T04:27:14.167Z,11.13
2022-11-29T04:31:12.771Z,13.55
2022-11-29T04:35:31.923Z,8.48
2022-11-29T04:39:42.779Z,5.47
2022-11-29T04:43:41.469Z,7.30
2022-11-29T04:47:55.624Z,7.43
2022-11-29T04:52:02.002Z,4.43
2022-11-29T04:55:52.352Z,4.00
2022-11-29T04:59:53.787Z,4.40
2022-11-29T05:04:02.492Z,5.03
2022-11-29T05:08:23.086Z,5.50
2022-11-29T05:12:29.544Z,6.93
2022-11-29T05:16:41.990Z,6.05
2022-11-29T05:20:23.893Z,6.93
2022-11-29T05:24:33.622Z,7.93
2022-11-29T05:28:38.049Z,5.38
2022-11-29T05:32:30.392Z,6.65
2022-11-29T05:36:49.693Z,6.40
2022-11-29T05:44:39.009Z,5.80
2022-11-29T05:48:46.642Z,6.47
2022-11-29T05:53:05.123Z,8.00
2022-11-29T05:56:57.755Z,8.37
2022-11-29T06:01:03.664Z,6.68
2022-11-29T06:05:11.592Z,6.65
2022-11-29T06:09:09.014Z,6.80
2022-11-29T06:13:11.279Z,8.05
2022-11-29T06:17:02.374Z,6.85
2022-11-29T06:20:44.209Z,6.35
2022-11-29T06:24:56.543Z,7.93
2022-11-29T06:29:03.415Z,6.30
2022-11-29T06:33:21.489Z,7.20
2022-11-29T06:37:20.106Z,7.72
2022-11-29T06:41:02.733Z,19.60
2022-11-29T06:44:45.199Z,13.00
2022-11-29T06:48:34.514Z,19.45
2022-11-29T06:52:45.240Z,20.15
2022-11-29T06:57:00.180Z,22.25
2022-11-29T07:00:48.645Z,26.85
2022-11-29T07:04:33.284Z,21.80
2022-11-29T07:08:21.796Z,23.77
2022-11-29T07:12:04.200Z,23.90
2022-11-29T07:15:54.604Z,27.98
2022-11-29T07:19:48.156Z,27.08
2022-11-29T07:23:45.348Z,21.17
2022-11-29T07:27:30.174Z,26.67
2022-11-29T07:31:40.768Z,18.33
2022-11-29T07:35:38.713Z,35.83
2022-11-29T07:39:35.597Z,31.10
2022-11-29T07:43:26.261Z,37.22
2022-11-29T07:47:09.029Z,39.17
2022-11-29T07:50:50.906Z,46.45
2022-11-29T07:54:32.885Z,52.88
2022-11-29T07:58:16.595Z,50.60
2022-11-29T08:01:59.392Z,97.07
2022-11-29T08:05:46.443Z,56.25
2022-11-29T08:09:28.390Z,53.17
2022-11-29T08:13:10.381Z,51.65
2022-11-29T08:16:52.370Z,51.35
2022-11-29T08:20:34.304Z,45.10
2022-11-29T08:24:16.215Z,59.45
2022-11-29T08:27:58.076Z,31.73
2022-11-29T08:31:40.197Z,73.95
2022-11-29T08:35:23.730Z,67.38
2022-11-29T08:39:09.297Z,46.83
2022-11-29T08:42:51.505Z,59.13
2022-11-29T08:46:52.353Z,34.40
2022-11-29T08:50:34.403Z,48.00
2022-11-29T08:54:16.476Z,41.08
2022-11-29T08:58:06.975Z,60.88
2022-11-29T09:01:49.021Z,39.15
2022-11-29T09:05:30.933Z,31.00
2022-11-29T09:09:12.834Z,79.28
2022-11-29T09:12:55.379Z,50.38
2022-11-29T09:16:38.496Z,40.33
2022-11-29T09:20:20.793Z,55.60
2022-11-29T09:24:06.306Z,38.72
2022-11-29T09:27:48.184Z,24.42
2022-11-29T09:31:31.385Z,31.52
2022-11-29T09:35:13.367Z,18.33
2022-11-29T09:38:55.320Z,20.90
2022-11-29T09:42:40.159Z,54.17
2022-11-29T09:46:22.209Z,24.85
2022-11-29T09:50:23.070Z,22.55
2022-11-29T09:54:26.199Z,23.75
2022-11-29T09:58:14.067Z,24.60
2022-11-29T10:02:14.924Z,56.55
2022-11-29T10:06:25.219Z,50.10
2022-11-29T10:10:16.397Z,87.45
2022-11-29T10:14:11.922Z,91.93
2022-11-29T10:18:18.922Z,106.40
2022-11-29T10:22:08.172Z,112.00
2022-11-29T10:25:57.872Z,110.70
2022-11-29T10:29:39.956Z,59.80
2022-11-29T10:33:30.682Z,66.25
2022-11-29T10:37:19.921Z,69.53
2022-11-29T10:41:07.909Z,67.38
2022-11-29T10:44:49.808Z,39.05
2022-11-29T10:48:34.106Z,150.25
2022-11-29T10:52:21.407Z,94.00
2022-11-29T10:56:14.563Z,102.30
2022-11-29T11:00:07.301Z,135.50
2022-11-29T11:03:57.685Z,305.92
2022-11-29T11:07:39.670Z,116.22
2022-11-29T11:11:32.887Z,92.15
2022-11-29T11:15:26.577Z,88.35
2022-11-29T11:19:27.841Z,199.20
2022-11-29T11:23:29.916Z,88.78
2022-11-29T11:27:12.035Z,137.95
2022-11-29T11:30:57.726Z,106.57
2022-11-29T11:34:50.480Z,68.38
2022-11-29T11:38:34.541Z,94.72
2022-11-29T11:42:39.468Z,112.45
2022-11-29T11:46:21.757Z,101.32
2022-11-29T11:50:06.892Z,120.32
2022-11-29T11:53:55.575Z,67.47
2022-11-29T11:57:37.569Z,65.95
2022-11-29T12:01:45.677Z,101.53
2022-11-29T12:05:27.575Z,67.77
2022-11-29T12:09:10.002Z,85.05
2022-11-29T12:12:53.600Z,185.85
2022-11-29T12:16:38.973Z,77.60
2022-11-29T12:20:35.852Z,119.93
2022-11-29T12:24:41.606Z,48.00
2022-11-29T12:28:30.476Z,60.92
2022-11-29T12:32:12.353Z,50.03
2022-11-29T12:35:57.292Z,57.00
2022-11-29T12:39:44.753Z,72.05
2022-11-29T12:44:05.315Z,33.33
2022-11-29T12:48:13.676Z,42.42
2022-11-29T12:52:34.555Z,44.65
2022-11-29T12:56:25.951Z,32.47
2022-11-29T13:00:19.013Z,33.38
2022-11-29T13:04:03.985Z,32.78
2022-11-29T13:08:04.064Z,28.23
2022-11-29T13:12:19.706Z,18.98
2022-11-29T13:16:30.682Z,11.95
2022-11-29T13:20:34.797Z,27.98
2022-11-29T13:24:25.739Z,31.33
2022-11-29T13:28:25.127Z,29.48
2022-11-29T13:32:14.743Z,35.80
2022-11-29T13:36:13.746Z,45.00
2022-11-29T13:40:00.644Z,32.63
2022-11-29T13:43:51.920Z,26.63
2022-11-29T13:47:59.139Z,17.90
2022-11-29T13:51:41.456Z,9.20
2022-11-29T13:55:29.465Z,15.13
2022-11-29T14:03:24.978Z,14.32
2022-11-29T14:07:18.515Z,10.68
2022-11-29T14:11:14.567Z,21.35
2022-11-29T14:15:11.501Z,17.80
2022-11-29T14:19:08.402Z,30.85
2022-11-29T14:23:05.343Z,24.65
2022-11-29T14:26:47.515Z,22.17
2022-11-29T14:30:49.771Z,16.92
2022-11-29T14:34:35.128Z,27.02
2022-11-29T14:38:20.200Z,16.17
2022-11-29T14:42:06.278Z,13.68
2022-11-29T14:46:06.419Z,13.18
2022-11-29T14:49:48.483Z,27.60
2022-11-29T14:53:35.722Z,17.65
2022-11-29T14:57:48.462Z,18.20
2022-11-29T15:01:30.707Z,13.02
2022-11-29T15:05:34.491Z,17.17
2022-11-29T15:09:20.687Z,21.13
2022-11-29T15:13:04.141Z,20.02
2022-11-29T15:16:46.093Z,10.52
2022-11-29T15:27:56.821Z,10.75
2022-11-29T15:31:42.166Z,12.75
2022-11-29T15:35:24.652Z,23.98
2022-11-29T15:39:44.521Z,15.05
2022-11-29T15:43:38.124Z,11.02
2022-11-29T15:52:05.699Z,11.02
2022-11-29T15:55:50.621Z,20.63
2022-11-29T15:59:35.516Z,34.17
2022-11-29T16:03:25.212Z,25.48
2022-11-29T16:07:07.360Z,20.13
2022-11-29T16:10:53.094Z,12.07
2022-11-29T16:14:35.114Z,13.93
2022-11-29T16:18:25.458Z,17.90
2022-11-29T16:22:25.851Z,16.88
2022-11-29T16:26:10.745Z,19.00
2022-11-29T16:29:55.159Z,15.32
2022-11-29T16:33:38.443Z,14.48
2022-11-29T16:37:28.783Z,12.40
2022-11-29T16:41:34.992Z,13.27
2022-11-29T16:45:29.151Z,20.58
2022-11-29T16:49:31.869Z,16.95
2022-11-29T16:53:36.417Z,15.70
2022-11-29T16:57:18.794Z,14.90
2022-11-29T17:01:15.203Z,15.10
2022-11-29T17:04:58.183Z,14.70
2022-11-29T17:08:40.124Z,15.73
2022-11-29T17:12:22.328Z,12.95
2022-11-29T17:16:04.624Z,12.07
2022-11-29T17:19:46.517Z,12.00
2022-11-29T17:23:28.427Z,12.75
2022-11-29T17:27:10.367Z,14.10
2022-11-29T17:30:52.928Z,10.80
2022-11-29T17:34:35.259Z,13.65
2022-11-29T17:38:17.225Z,10.88
2022-11-29T17:41:59.066Z,10.40
2022-11-29T17:45:40.985Z,9.43
2022-11-29T17:49:23.122Z,8.00
2022-11-29T17:53:05.709Z,9.57
2022-11-29T17:56:47.586Z,10.57
2022-11-29T18:00:29.511Z,10.05
2022-11-29T18:04:11.519Z,13.85
2022-11-29T18:07:59.261Z,15.85
2022-11-29T18:11:48.958Z,13.68
2022-11-29T18:15:33.026Z,15.10
2022-11-29T18:19:17.338Z,12.63
2022-11-29T18:23:03.627Z,15.68
2022-11-29T18:26:48.455Z,13.43
2022-11-29T18:30:30.402Z,12.95
2022-11-29T18:34:14.084Z,13.23
2022-11-29T18:38:14.626Z,12.95
2022-11-29T18:41:57.445Z,40.22
2022-11-29T18:45:39.503Z,17.13
2022-11-29T18:49:22.434Z,16.45
2022-11-29T18:53:04.291Z,17.42
2022-11-29T18:56:46.611Z,18.48
2022-11-29T19:00:28.555Z,14.10
2022-11-29T19:04:13.545Z,15.00
2022-11-29T19:07:55.560Z,12.77
2022-11-29T19:11:37.473Z,11.52
2022-11-29T19:15:19.373Z,13.10
2022-11-29T19:19:02.130Z,13.27
2022-11-29T19:22:44.078Z,16.05
2022-11-29T19:26:28.115Z,25.83
2022-11-29T19:30:10.637Z,19.88
2022-11-29T19:33:53.958Z,17.30
2022-11-29T19:37:35.865Z,17.83
2022-11-29T19:41:19.004Z,16.13
2022-11-29T19:45:16.555Z,16.98
2022-11-29T19:49:00.494Z,13.93
2022-11-29T19:52:42.330Z,19.02
2022-11-29T19:56:24.652Z,16.33
2022-11-29T20:00:07.499Z,19.85
2022-11-29T20:03:50.371Z,18.20
2022-11-29T20:07:32.324Z,20.27
2022-11-29T20:11:19.781Z,19.08
2022-11-29T20:15:01.701Z,15.02
2022-11-29T20:18:50.641Z,18.58
2022-11-29T20:22:33.193Z,14.45
2022-11-29T20:26:17.886Z,21.30
2022-11-29T20:29:59.780Z,12.98
2022-11-29T20:33:43.191Z,14.52
2022-11-29T20:37:37.099Z,14.80
2022-11-29T20:41:33.097Z,15.70
2022-11-29T20:45:15.903Z,18.52
2022-11-29T20:49:03.127Z,16.35
2022-11-29T20:52:52.087Z,17.35
2022-11-29T20:56:33.969Z,18.00
2022-11-29T21:00:16.167Z,32.60
2022-11-29T21:03:58.159Z,18.90
2022-11-29T21:07:40.159Z,23.50
2022-11-29T21:11:22.352Z,21.25
2022-11-29T21:15:04.782Z,17.45
2022-11-29T21:18:48.762Z,16.73
2022-11-29T21:23:03.670Z,18.98
2022-11-29T21:26:51.347Z,16.98
2022-11-29T21:30:33.387Z,18.65
2022-11-29T21:34:15.438Z,18.30
2022-11-29T21:38:00.812Z,18.38
2022-11-29T21:41:42.996Z,17.48
2022-11-29T21:45:24.885Z,19.02
2022-11-29T21:49:06.846Z,16.65
2022-11-29T21:52:52.377Z,16.00
2022-11-29T21:56:34.308Z,18.05
2022-11-29T22:00:16.597Z,20.55
2022-11-29T22:03:58.478Z,15.27
2022-11-29T22:07:40.419Z,16.42
2022-11-29T22:11:36.452Z,16.23
2022-11-29T22:15:24.220Z,14.55
2022-11-29T22:19:06.863Z,14.13
2022-11-29T22:22:48.952Z,16.58
2022-11-29T22:26:30.931Z,20.27
2022-11-29T22:30:13.082Z,18.75
2022-11-29T22:33:56.015Z,15.65
2022-11-29T22:37:37.909Z,16.90
2022-11-29T22:41:19.859Z,16.85
2022-11-29T22:45:04.095Z,16.48
2022-11-29T22:48:47.973Z,23.33
2022-11-29T22:52:29.806Z,18.17
2022-11-29T22:56:12.245Z,16.88
2022-11-29T22:59:54.198Z,18.02
2022-11-29T23:03:37.760Z,17.15
2022-11-29T23:07:19.644Z,17.02
2022-11-29T23:11:04.360Z,18.75
2022-11-29T23:14:49.187Z,19.67
2022-11-29T23:18:34.125Z,18.73
2022-11-29T23:22:16.129Z,17.00
2022-11-29T23:25:58.553Z,19.80
2022-11-29T23:29:40.528Z,18.63
2022-11-29T23:33:23.571Z,18.70
2022-11-29T23:37:05.445Z,17.98
2022-11-29T23:40:47.410Z,18.23
2022-11-29T23:44:29.270Z,19.30
2022-11-29T23:48:11.124Z,20.05
2022-11-29T23:51:53.007Z,22.23
2022-11-29T23:55:34.862Z,18.23
2022-11-29T23:59:16.885Z,20.08
